createdAt,value
2018-12-16T00:00:41.978Z,94.24
2018-12-16T00:03:53.578Z,93.80
2018-12-16T00:07:00.905Z,94.23
2018-12-16T00:10:08.078Z,94.20
2018-12-16T00:13:14.722Z,94.42
2018-12-16T00:16:34.000Z,94.54
2018-12-16T00:19:53.467Z,94.53
2018-12-16T00:23:00.131Z,94.39
2018-12-16T00:26:23.764Z,95.12
2018-12-16T00:29:36.537Z,94.01
2018-12-16T00:32:46.366Z,94.76
2018-12-16T00:35:57.090Z,94.36
2018-12-16T00:39:04.805Z,94.57
2018-12-16T00:42:23.642Z,94.45
2018-12-16T00:45:30.876Z,94.14
2018-12-16T00:48:41.350Z,93.93
2018-12-16T00:51:47.999Z,93.94
2018-12-16T00:54:58.173Z,94.27
2018-12-16T00:58:17.218Z,94.08
2018-12-16T01:01:23.888Z,94.34
2018-12-16T01:04:30.610Z,93.74
2018-12-16T01:07:50.633Z,94.24
2018-12-16T01:11:11.114Z,94.56
2018-12-16T01:14:17.775Z,94.27
2018-12-16T01:17:36.857Z,94.41
2018-12-16T01:20:43.518Z,94.19
2018-12-16T01:23:50.283Z,94.18
2018-12-16T01:26:56.930Z,94.42
2018-12-16T01:30:03.606Z,94.74
2018-12-16T01:33:10.408Z,94.93
2018-12-16T01:36:18.122Z,94.95
2018-12-16T01:39:30.911Z,94.63
2018-12-16T01:42:40.661Z,94.32
2018-12-16T01:45:48.997Z,94.63
2018-12-16T01:49:15.286Z,94.57
2018-12-16T01:52:29.943Z,94.51
2018-12-16T01:55:40.209Z,94.37
2018-12-16T01:58:47.414Z,94.58
2018-12-16T02:01:55.086Z,94.75
2018-12-16T02:05:01.755Z,94.77
2018-12-16T02:08:09.261Z,94.99
2018-12-16T02:11:15.921Z,94.62
2018-12-16T02:14:22.686Z,94.55
2018-12-16T02:17:41.647Z,94.61
2018-12-16T02:20:48.393Z,94.72
2018-12-16T02:23:55.389Z,94.63
2018-12-16T02:27:14.365Z,94.49
2018-12-16T02:30:26.477Z,94.43
2018-12-16T02:33:33.230Z,94.50
2018-12-16T02:36:39.926Z,95.05
2018-12-16T02:39:59.137Z,94.54
2018-12-16T02:43:05.931Z,94.53
2018-12-16T02:46:13.028Z,94.48
2018-12-16T02:49:31.893Z,94.27
2018-12-16T02:52:38.979Z,94.44
2018-12-16T02:55:46.238Z,94.28
2018-12-16T02:58:53.099Z,94.05
2018-12-16T03:02:13.991Z,93.64
2018-12-16T03:05:21.396Z,94.18
2018-12-16T03:08:40.594Z,93.78
2018-12-16T03:11:47.446Z,93.94
2018-12-16T03:14:54.209Z,94.30
2018-12-16T03:18:13.367Z,94.25
2018-12-16T03:21:20.024Z,94.08
2018-12-16T03:24:26.798Z,94.43
2018-12-16T03:27:33.447Z,94.08
2018-12-16T03:30:40.232Z,94.67
2018-12-16T03:33:47.104Z,94.61
2018-12-16T03:37:06.393Z,94.63
2018-12-16T03:40:13.574Z,94.08
2018-12-16T03:43:20.372Z,94.47
2018-12-16T03:46:27.274Z,94.58
2018-12-16T03:49:48.317Z,94.00
2018-12-16T03:52:55.181Z,94.23
2018-12-16T03:56:01.846Z,94.67
2018-12-16T03:59:21.264Z,94.53
2018-12-16T04:02:27.824Z,94.62
2018-12-16T04:05:35.235Z,94.78
2018-12-16T04:08:42.090Z,94.80
2018-12-16T04:12:00.931Z,94.62
2018-12-16T04:15:08.446Z,94.63
2018-12-16T04:18:14.386Z,94.85
2018-12-16T04:21:24.347Z,94.84
2018-12-16T04:24:34.251Z,94.62
2018-12-16T04:27:41.030Z,94.62
2018-12-16T04:30:48.011Z,94.84
2018-12-16T04:34:07.649Z,95.20
2018-12-16T04:37:14.300Z,94.96
2018-12-16T04:40:21.556Z,94.80
2018-12-16T04:43:28.569Z,94.68
2018-12-16T04:46:35.326Z,94.28
2018-12-16T04:49:43.126Z,94.79
2018-12-16T04:52:49.773Z,94.80
2018-12-16T04:56:09.335Z,94.33
2018-12-16T04:59:15.990Z,94.77
2018-12-16T05:02:22.894Z,94.94
2018-12-16T05:05:29.559Z,95.30
2018-12-16T05:08:36.215Z,94.83
2018-12-16T05:11:42.919Z,94.76
2018-12-16T05:14:50.074Z,95.12
2018-12-16T05:17:56.862Z,94.84
2018-12-16T05:21:16.081Z,94.75
2018-12-16T05:24:22.844Z,94.79
2018-12-16T05:27:29.512Z,94.73
2018-12-16T05:30:36.246Z,94.53
2018-12-16T05:33:42.905Z,94.62
2018-12-16T05:36:49.587Z,94.91
2018-12-16T05:40:09.269Z,94.92
2018-12-16T05:43:15.932Z,94.63
2018-12-16T05:46:22.946Z,95.14
2018-12-16T05:49:29.606Z,94.85
2018-12-16T05:52:48.954Z,95.09
2018-12-16T05:55:56.046Z,94.93
2018-12-16T05:59:03.110Z,94.47
2018-12-16T06:02:09.800Z,94.62
2018-12-16T06:05:35.273Z,94.79
2018-12-16T06:08:42.039Z,94.50
2018-12-16T06:11:48.701Z,94.38
2018-12-16T06:14:55.363Z,94.48
2018-12-16T06:18:02.379Z,94.52
2018-12-16T06:21:09.238Z,94.71
2018-12-16T06:24:15.901Z,94.53
2018-12-16T06:27:22.558Z,94.63
2018-12-16T06:30:32.869Z,94.46
2018-12-16T06:33:39.526Z,94.22
2018-12-16T06:36:58.477Z,94.25
2018-12-16T06:40:05.915Z,93.89
2018-12-16T06:43:12.657Z,93.83
2018-12-16T06:46:19.412Z,93.86
2018-12-16T06:49:38.370Z,93.98
2018-12-16T06:52:45.026Z,93.95
2018-12-16T06:55:51.915Z,93.96
2018-12-16T06:59:11.474Z,94.11
2018-12-16T07:02:18.221Z,94.39
2018-12-16T07:05:24.986Z,94.05
2018-12-16T07:08:31.640Z,94.60
2018-12-16T07:11:38.522Z,94.32
2018-12-16T07:14:45.190Z,94.34
2018-12-16T07:17:51.946Z,94.28
2018-12-16T07:21:17.253Z,94.63
2018-12-16T07:24:24.026Z,94.00
2018-12-16T07:27:30.998Z,94.86
2018-12-16T07:30:37.675Z,93.82
2018-12-16T07:33:56.938Z,94.14
2018-12-16T07:37:03.623Z,93.95
2018-12-16T07:40:10.820Z,94.14
2018-12-16T07:43:17.694Z,93.83
2018-12-16T07:46:38.672Z,93.88
2018-12-16T07:49:45.362Z,93.60
2018-12-16T07:53:06.402Z,93.63
2018-12-16T07:56:13.224Z,93.67
2018-12-16T07:59:20.384Z,93.75
2018-12-16T08:02:40.746Z,93.63
2018-12-16T08:05:47.503Z,93.58
2018-12-16T08:08:54.278Z,93.45
2018-12-16T08:12:13.385Z,93.95
2018-12-16T08:15:20.150Z,93.73
2018-12-16T08:18:26.821Z,93.58
2018-12-16T08:21:46.047Z,93.08
2018-12-16T08:24:52.736Z,92.91
2018-12-16T08:27:59.493Z,93.56
2018-12-16T08:31:06.599Z,93.37
2018-12-16T08:34:28.474Z,92.91
2018-12-16T08:37:35.134Z,93.11
2018-12-16T08:40:42.326Z,92.99
2018-12-16T08:43:49.089Z,92.89
2018-12-16T08:47:08.493Z,93.06
2018-12-16T08:50:16.608Z,93.21
2018-12-16T08:53:23.646Z,93.32
2018-12-16T08:56:42.762Z,93.35
2018-12-16T08:59:49.421Z,93.29
2018-12-16T09:02:56.195Z,93.19
2018-12-16T09:06:15.522Z,92.98
2018-12-16T09:09:22.809Z,93.15
2018-12-16T09:12:29.466Z,93.39
2018-12-16T09:15:36.329Z,93.00
2018-12-16T09:18:55.657Z,92.85
2018-12-16T09:22:02.305Z,93.16
2018-12-16T09:25:09.501Z,92.86
2018-12-16T09:28:28.320Z,92.46
2018-12-16T09:31:35.074Z,92.95
2018-12-16T09:34:41.816Z,92.90
2018-12-16T09:37:48.458Z,92.96
2018-12-16T09:40:55.327Z,93.16
2018-12-16T09:44:02.125Z,92.97
2018-12-16T09:47:21.778Z,92.69
2018-12-16T09:50:40.962Z,92.74
2018-12-16T09:53:47.714Z,92.46
2018-12-16T09:56:54.478Z,92.56
2018-12-16T10:00:14.094Z,92.02
2018-12-16T10:03:21.393Z,92.33
2018-12-16T10:06:28.074Z,92.59
2018-12-16T10:09:34.844Z,92.37
2018-12-16T10:12:41.602Z,92.91
2018-12-16T10:15:49.099Z,92.58
2018-12-16T10:19:08.065Z,92.32
2018-12-16T10:22:15.039Z,92.64
2018-12-16T10:25:21.784Z,92.65
2018-12-16T10:28:40.743Z,92.78
2018-12-16T10:31:47.291Z,91.88
2018-12-16T10:35:07.202Z,91.94
2018-12-16T10:38:13.841Z,91.81
2018-12-16T10:41:20.818Z,91.86
2018-12-16T10:44:27.794Z,91.63
2018-12-16T10:47:35.266Z,92.28
2018-12-16T10:50:42.017Z,92.20
2018-12-16T10:54:01.070Z,91.88
2018-12-16T10:57:07.629Z,91.66
2018-12-16T11:00:31.938Z,91.70
2018-12-16T11:03:39.335Z,91.32
2018-12-16T11:06:58.433Z,91.49
2018-12-16T11:10:05.805Z,91.71
2018-12-16T11:13:12.782Z,91.74
2018-12-16T11:16:19.850Z,91.83
2018-12-16T11:19:26.512Z,91.57
2018-12-16T11:22:50.462Z,91.39
2018-12-16T11:25:57.626Z,91.15
2018-12-16T11:29:09.609Z,90.68
2018-12-16T11:32:16.726Z,90.91
2018-12-16T11:35:24.494Z,90.73
2018-12-16T11:38:35.138Z,91.39
2018-12-16T11:41:55.190Z,91.11
2018-12-16T11:45:02.330Z,91.47
2018-12-16T11:48:09.499Z,91.38
2018-12-16T11:51:21.746Z,91.21
2018-12-16T11:54:29.989Z,91.17
2018-12-16T11:57:37.015Z,91.46
2018-12-16T12:00:56.225Z,91.47
2018-12-16T12:04:15.774Z,91.17
2018-12-16T12:07:23.291Z,90.83
2018-12-16T12:10:30.291Z,91.00
2018-12-16T12:13:36.938Z,91.20
2018-12-16T12:16:43.695Z,91.42
2018-12-16T12:20:03.657Z,91.32
2018-12-16T12:23:22.755Z,91.54
2018-12-16T12:26:36.301Z,91.38
2018-12-16T12:29:56.205Z,91.34
2018-12-16T12:33:03.138Z,91.34
2018-12-16T12:36:10.315Z,91.77
2018-12-16T12:39:16.937Z,91.68
2018-12-16T12:42:36.161Z,91.69
2018-12-16T12:45:43.921Z,90.96
2018-12-16T12:49:03.138Z,90.70
2018-12-16T12:52:10.321Z,91.00
2018-12-16T12:55:16.978Z,91.29
2018-12-16T12:58:24.193Z,91.26
2018-12-16T13:01:43.033Z,91.22
2018-12-16T13:04:49.773Z,91.58
2018-12-16T13:07:56.528Z,91.58
2018-12-16T13:11:15.858Z,91.85
2018-12-16T13:14:22.602Z,90.84
2018-12-16T13:17:29.351Z,90.40
2018-12-16T13:20:51.545Z,90.67
2018-12-16T13:23:58.398Z,90.56
2018-12-16T13:27:05.347Z,90.91
2018-12-16T13:30:12.274Z,90.87
2018-12-16T13:33:31.437Z,91.08
2018-12-16T13:36:38.082Z,89.84
2018-12-16T13:39:44.115Z,90.66
2018-12-16T13:42:50.862Z,90.68
2018-12-16T13:46:09.731Z,90.77
2018-12-16T13:49:18.342Z,91.19
2018-12-16T13:52:25.460Z,91.43
2018-12-16T13:55:32.198Z,90.94
2018-12-16T13:58:51.244Z,91.00
2018-12-16T14:01:58.962Z,91.46
2018-12-16T14:05:06.513Z,91.43
2018-12-16T14:08:25.526Z,91.26
2018-12-16T14:11:32.598Z,91.27
2018-12-16T14:14:39.239Z,91.31
2018-12-16T14:17:58.194Z,91.45
2018-12-16T14:21:04.987Z,91.37
2018-12-16T14:24:12.150Z,91.38
2018-12-16T14:27:18.914Z,91.53
2018-12-16T14:30:38.098Z,91.79
2018-12-16T14:33:45.009Z,91.88
2018-12-16T14:36:51.763Z,92.07
2018-12-16T14:40:11.329Z,92.26
2018-12-16T14:43:18.008Z,91.89
2018-12-16T14:46:24.753Z,91.77
2018-12-16T14:49:31.511Z,92.23
2018-12-16T14:52:50.741Z,92.08
2018-12-16T14:55:57.582Z,92.11
2018-12-16T14:59:04.331Z,92.17
2018-12-16T15:02:23.395Z,92.06
2018-12-16T15:05:30.354Z,92.10
2018-12-16T15:08:37.686Z,92.21
2018-12-16T15:11:44.338Z,92.58
2018-12-16T15:14:51.818Z,91.99
2018-12-16T15:17:58.589Z,92.04
2018-12-16T15:21:18.424Z,91.99
2018-12-16T15:24:37.563Z,92.64
2018-12-16T15:27:44.313Z,92.29
2018-12-16T15:30:50.965Z,92.37
2018-12-16T15:34:10.197Z,92.11
2018-12-16T15:37:17.339Z,92.20
2018-12-16T15:40:24.090Z,92.29
2018-12-16T15:43:42.874Z,92.12
2018-12-16T15:46:52.590Z,92.30
2018-12-16T15:50:12.481Z,92.48
2018-12-16T15:53:31.910Z,92.50
2018-12-16T15:56:38.559Z,92.39
2018-12-16T15:59:57.370Z,92.38
2018-12-16T16:03:08.399Z,92.41
2018-12-16T16:06:15.087Z,92.40
2018-12-16T16:09:22.279Z,92.19
2018-12-16T16:12:29.331Z,92.04
2018-12-16T16:15:36.071Z,92.27
2018-12-16T16:18:42.924Z,92.55
2018-12-16T16:22:04.053Z,92.33
2018-12-16T16:25:11.474Z,92.37
2018-12-16T16:28:18.218Z,92.42
2018-12-16T16:31:24.906Z,92.56
2018-12-16T16:34:43.948Z,92.52
2018-12-16T16:37:51.118Z,92.74
2018-12-16T16:40:58.601Z,92.25
2018-12-16T16:44:05.778Z,92.85
2018-12-16T16:47:12.440Z,92.62
2018-12-16T16:50:19.617Z,92.55
2018-12-16T16:53:26.283Z,92.99
2018-12-16T16:56:46.123Z,93.05
2018-12-16T16:59:53.284Z,92.82
2018-12-16T17:03:00.035Z,92.85
2018-12-16T17:06:06.696Z,92.40
2018-12-16T17:09:25.701Z,92.24
2018-12-16T17:12:32.457Z,92.75
2018-12-16T17:15:39.354Z,92.52
2018-12-16T17:19:00.282Z,92.66
2018-12-16T17:22:07.090Z,92.80
2018-12-16T17:25:14.083Z,92.58
2018-12-16T17:28:20.201Z,92.48
2018-12-16T17:31:27.122Z,92.37
2018-12-16T17:34:33.772Z,92.83
2018-12-16T17:37:52.905Z,92.53
2018-12-16T17:40:59.572Z,92.19
2018-12-16T17:44:06.771Z,92.34
2018-12-16T17:47:13.525Z,92.54
2018-12-16T17:50:32.794Z,92.32
2018-12-16T17:53:39.790Z,92.50
2018-12-16T17:56:46.516Z,92.53
2018-12-16T18:00:07.177Z,92.61
2018-12-16T18:03:13.929Z,92.75
2018-12-16T18:06:20.674Z,92.58
2018-12-16T18:09:39.765Z,92.54
2018-12-16T18:12:46.527Z,92.41
2018-12-16T18:15:54.001Z,92.48
2018-12-16T18:19:00.834Z,93.12
2018-12-16T18:22:13.853Z,93.22
2018-12-16T18:25:28.498Z,92.89
2018-12-16T18:28:35.362Z,93.00
2018-12-16T18:31:42.166Z,92.97
2018-12-16T18:35:04.220Z,92.71
2018-12-16T18:38:11.203Z,92.59
2018-12-16T18:41:30.347Z,92.85
2018-12-16T18:44:37.067Z,92.66
2018-12-16T18:47:43.726Z,92.57
2018-12-16T18:50:50.270Z,92.73
2018-12-16T18:53:57.022Z,92.80
2018-12-16T18:57:17.866Z,93.13
2018-12-16T19:00:24.724Z,93.05
2018-12-16T19:03:31.368Z,92.92
2018-12-16T19:06:50.546Z,93.00
2018-12-16T19:09:57.234Z,92.87
2018-12-16T19:13:04.521Z,92.93
2018-12-16T19:16:11.275Z,92.81
2018-12-16T19:19:30.457Z,92.99
2018-12-16T19:22:37.135Z,92.86
2018-12-16T19:25:44.009Z,93.49
2018-12-16T19:29:03.602Z,93.03
2018-12-16T19:32:23.090Z,93.11
2018-12-16T19:35:29.750Z,93.39
2018-12-16T19:38:36.637Z,93.22
2018-12-16T19:41:57.794Z,93.63
2018-12-16T19:45:05.631Z,93.88
2018-12-16T19:48:25.229Z,93.35
2018-12-16T19:51:31.551Z,93.38
2018-12-16T19:54:39.071Z,93.58
2018-12-16T19:57:45.766Z,93.58
2018-12-16T20:00:53.451Z,93.37
2018-12-16T20:04:05.574Z,93.28
2018-12-16T20:07:12.254Z,93.09
2018-12-16T20:10:31.264Z,93.20
2018-12-16T20:13:37.913Z,93.25
2018-12-16T20:16:57.223Z,93.23
2018-12-16T20:20:18.630Z,92.97
2018-12-16T20:23:25.279Z,93.17
2018-12-16T20:26:32.046Z,93.47
2018-12-16T20:29:56.741Z,93.30
2018-12-16T20:33:03.261Z,93.63
2018-12-16T20:36:10.013Z,93.65
2018-12-16T20:39:29.058Z,93.57
2018-12-16T20:42:35.937Z,93.36
2018-12-16T20:45:43.342Z,93.45
2018-12-16T20:48:50.254Z,93.39
2018-12-16T20:51:57.170Z,93.25
2018-12-16T20:55:24.241Z,93.28
2018-12-16T20:58:30.869Z,93.29
2018-12-16T21:01:49.657Z,93.48
2018-12-16T21:04:56.423Z,93.87
2018-12-16T21:08:03.177Z,93.63
2018-12-16T21:11:27.714Z,93.51
2018-12-16T21:14:39.733Z,93.77
2018-12-16T21:17:51.742Z,93.73
2018-12-16T21:21:18.083Z,93.71
2018-12-16T21:24:37.169Z,93.64
2018-12-16T21:27:44.018Z,93.30
2018-12-16T21:30:50.903Z,93.10
2018-12-16T21:34:09.858Z,93.21
2018-12-16T21:37:16.622Z,93.53
2018-12-16T21:40:23.276Z,93.48
2018-12-16T21:43:29.930Z,93.64
2018-12-16T21:46:36.586Z,93.74
2018-12-16T21:49:43.348Z,93.51
2018-12-16T21:52:50.015Z,93.68
2018-12-16T21:55:56.687Z,93.53
2018-12-16T21:59:03.764Z,93.90
2018-12-16T22:02:10.513Z,93.64
2018-12-16T22:05:19.230Z,93.93
2018-12-16T22:08:25.893Z,94.16
2018-12-16T22:11:32.658Z,93.80
2018-12-16T22:14:39.514Z,93.93
2018-12-16T22:17:46.673Z,93.90
2018-12-16T22:20:53.828Z,93.79
2018-12-16T22:24:00.487Z,94.05
2018-12-16T22:27:07.139Z,94.41
2018-12-16T22:30:13.909Z,94.23
2018-12-16T22:33:20.584Z,94.11
2018-12-16T22:36:27.269Z,94.30
2018-12-16T22:39:34.030Z,93.97
2018-12-16T22:42:53.221Z,93.85
2018-12-16T22:46:05.865Z,93.78
2018-12-16T22:49:13.674Z,93.97
2018-12-16T22:52:20.862Z,94.18
2018-12-16T22:55:27.617Z,93.71
2018-12-16T22:58:54.203Z,93.97
2018-12-16T23:02:08.734Z,94.39
2018-12-16T23:05:15.484Z,94.13
2018-12-16T23:08:22.465Z,93.94
2018-12-16T23:11:41.478Z,94.18
2018-12-16T23:14:48.149Z,94.12
2018-12-16T23:17:54.881Z,94.23
2018-12-16T23:21:01.575Z,94.14
2018-12-16T23:24:08.217Z,94.16
2018-12-16T23:27:34.255Z,94.01
2018-12-16T23:30:42.165Z,93.92
2018-12-16T23:34:01.730Z,94.16
2018-12-16T23:37:21.155Z,94.01
2018-12-16T23:40:28.220Z,93.73
2018-12-16T23:43:34.880Z,93.76
2018-12-16T23:46:53.870Z,94.01
2018-12-16T23:50:00.530Z,93.90
2018-12-16T23:53:19.362Z,94.21
2018-12-16T23:56:26.033Z,94.17
2018-12-16T23:59:32.803Z,94.00
